Time;durP1;ratioP1;P1;durP2;ratioP2;P2;SDS_P1;SDS_P2;PMS_P1;PMS_P2;Temp;Humidity;BMP_temperature;BMP_pressure;BME280_temperature;BME280_humidity;BME280_pressure;Samples;Min_cycle;Max_cycle;Signal;HPM_P1;HPM_P2
2022/03/29 00:01:31;;;;;;;0.10;0.10;;;;;;;21.03;36.27;101219.97;5114577;28;20048;-33
2022/03/29 00:03:56;;;;;;;0.10;0.10;;;;;;;21.03;36.28;101217.19;5096904;28;20134;-34
2022/03/29 00:06:22;;;;;;;0.15;0.15;;;;;;;21.02;36.30;101218.28;5116417;28;20050;-37
2022/03/29 00:08:48;;;;;;;0.20;0.20;;;;;;;21.01;36.53;101214.69;5117421;28;20469;-36
2022/03/29 00:11:14;;;;;;;0.10;0.10;;;;;;;21.01;36.52;101211.91;5114374;28;20365;-33
2022/03/29 00:13:40;;;;;;;0.10;0.10;;;;;;;21.01;36.22;101205.56;5099703;28;20049;-37
2022/03/29 00:16:05;;;;;;;0.10;0.10;;;;;;;21.01;36.63;101197.25;5117486;28;20085;-35
2022/03/29 00:18:31;;;;;;;0.10;0.10;;;;;;;21.01;36.30;101194.47;5118423;28;20047;-34
2022/03/29 00:20:57;;;;;;;0.10;0.10;;;;;;;21.01;36.70;101194.47;5114553;28;20053;-37
2022/03/29 00:23:22;;;;;;;0.10;0.10;;;;;;;21.02;36.57;101198.91;5117443;28;20150;-33
2022/03/29 00:25:48;;;;;;;0.10;0.10;;;;;;;21.02;36.29;101193.34;5096217;28;20217;-38
2022/03/29 00:28:14;;;;;;;0.10;0.10;;;;;;;21.00;36.51;101190.88;5116402;28;20100;-35
2022/03/29 00:30:40;;;;;;;0.10;0.10;;;;;;;21.00;36.50;101193.66;5113198;28;20418;-36
2022/03/29 00:33:06;;;;;;;0.10;0.10;;;;;;;21.00;36.20;101190.06;5096674;28;20176;-36
2022/03/29 00:35:31;;;;;;;0.30;0.30;;;;;;;21.01;36.50;101194.47;5116524;28;20127;-36
2022/03/29 00:37:57;;;;;;;0.13;0.13;;;;;;;21.01;36.26;101187.00;5120415;28;20080;-34
2022/03/29 00:40:23;;;;;;;0.10;0.10;;;;;;;21.01;36.34;101183.41;5119654;28;20086;-34
2022/03/29 00:42:48;;;;;;;0.20;0.20;;;;;;;20.99;36.26;101178.16;5115517;28;20051;-35
2022/03/29 00:45:14;;;;;;;0.10;0.10;;;;;;;20.99;36.47;101180.09;5122342;28;20170;-37
2022/03/29 00:47:40;;;;;;;0.20;0.20;;;;;;;20.99;36.59;101178.16;5106883;28;20050;-33
2022/03/29 00:50:06;;;;;;;0.20;0.20;;;;;;;21.00;36.34;101174.28;5096878;28;20401;-33
2022/03/29 00:52:33;;;;;;;0.10;0.10;;;;;;;20.99;36.11;101172.63;5115618;28;20047;-34
2022/03/29 00:55:00;;;;;;;0.10;0.10;;;;;;;21.00;36.69;101168.72;5122387;28;20492;-36
2022/03/29 00:57:28;;;;;;;0.10;0.10;;;;;;;20.99;36.35;101160.72;5100314;28;20079;-37
2022/03/29 00:59:55;;;;;;;0.10;0.10;;;;;;;20.99;36.52;101161.56;5099478;28;20143;-35
2022/03/29 01:02:21;;;;;;;0.13;0.13;;;;;;;20.99;36.33;101160.72;5117500;27;20138;-34
2022/03/29 01:04:46;;;;;;;0.10;0.10;;;;;;;20.98;36.48;101157.13;5120116;27;20066;-36
2022/03/29 01:07:12;;;;;;;0.10;0.10;;;;;;;20.98;36.28;101157.13;5116901;28;20051;-37
2022/03/29 01:09:38;;;;;;;0.20;0.20;;;;;;;20.99;36.34;101147.69;5117145;28;20047;-37
2022/03/29 01:12:04;;;;;;;0.20;0.20;;;;;;;20.98;36.60;101145.22;5119035;28;20035;-37
2022/03/29 01:14:29;;;;;;;0.20;0.20;;;;;;;20.97;36.32;101143.56;5119357;28;20067;-35
2022/03/29 01:19:42;;;;;;;0.10;0.10;;;;;;;20.98;36.48;101142.44;5087330;28;20526;-35
2022/03/29 01:22:09;;;;;;;0.10;0.10;;;;;;;20.98;36.57;101134.13;5105615;28;20075;-35
2022/03/29 01:24:36;;;;;;;0.10;0.10;;;;;;;20.97;36.58;101138.84;5117617;28;20139;-37
2022/03/29 01:27:04;;;;;;;0.17;0.17;;;;;;;20.98;36.35;101137.75;5098952;28;20624;-35
2022/03/29 01:29:31;;;;;;;0.10;0.10;;;;;;;20.97;36.42;101130.53;5117660;28;20089;-35
2022/03/29 01:31:58;;;;;;;0.20;0.20;;;;;;;20.98;36.50;101128.59;5106270;28;20508;-35
2022/03/29 01:34:24;;;;;;;0.10;0.10;;;;;;;20.98;36.33;101136.91;5096475;28;20554;-33
2022/03/29 01:36:49;;;;;;;0.10;0.10;;;;;;;20.98;36.25;101123.06;5116229;28;20071;-37
2022/03/29 01:39:16;;;;;;;0.20;0.20;;;;;;;20.97;36.42;101126.94;5120735;28;20052;-33
2022/03/29 01:41:42;;;;;;;0.15;0.15;;;;;;;20.98;36.58;101123.06;5123069;28;20082;-36
2022/03/29 01:44:09;;;;;;;0.20;0.20;;;;;;;20.97;36.48;101126.94;5099949;28;20134;-37
2022/03/29 01:46:34;;;;;;;0.20;0.20;;;;;;;20.97;36.36;101122.22;5093468;28;20477;-36
2022/03/29 01:49:01;;;;;;;0.10;0.10;;;;;;;20.96;36.55;101120.59;5115556;28;20044;-34
2022/03/29 01:51:27;;;;;;;0.10;0.10;;;;;;;20.96;36.34;101120.59;5097644;28;20075;-35
2022/03/29 01:53:54;;;;;;;0.10;0.10;;;;;;;20.96;36.36;101117.81;5100909;28;20165;-34
2022/03/29 01:56:20;;;;;;;0.10;0.10;;;;;;;20.96;36.38;101117.00;5099607;28;20134;-35
2022/03/29 01:58:45;;;;;;;0.10;0.10;;;;;;;20.96;36.13;101106.75;5101177;28;20054;-33
2022/03/29 02:01:11;;;;;;;0.20;0.20;;;;;;;20.97;36.53;101104.78;5118474;28;20044;-32
2022/03/29 02:03:37;;;;;;;0.10;0.10;;;;;;;20.96;36.62;101105.91;5118967;28;20050;-37
2022/03/29 02:06:03;;;;;;;0.10;0.10;;;;;;;20.95;36.31;101096.78;5121292;28;21125;-35
2022/03/29 02:08:29;;;;;;;0.17;0.17;;;;;;;20.95;36.42;101096.78;5120094;28;20062;-34
2022/03/29 02:10:55;;;;;;;0.10;0.10;;;;;;;20.96;36.37;101092.06;5120239;28;20561;-37
2022/03/29 02:13:21;;;;;;;0.10;0.10;;;;;;;20.95;36.50;101096.78;5100364;28;20046;-35
2022/03/29 02:15:47;;;;;;;0.10;0.10;;;;;;;20.94;36.17;101089.59;5117331;28;20561;-36
2022/03/29 02:18:12;;;;;;;0.20;0.20;;;;;;;20.95;36.37;101090.44;5118488;28;20179;-34
2022/03/29 02:20:38;;;;;;;0.10;0.10;;;;;;;20.96;36.70;101089.31;5121978;28;20041;-35
2022/03/29 02:23:06;;;;;;;0.20;0.20;;;;;;;20.95;36.51;101087.66;5102748;28;20035;-36
2022/03/29 02:25:32;;;;;;;0.10;0.10;;;;;;;20.96;36.36;101086.53;5120830;28;20549;-38
2022/03/29 02:27:58;;;;;;;0.20;0.20;;;;;;;20.95;36.37;101077.41;5115815;28;20139;-36
2022/03/29 02:30:24;;;;;;;0.20;0.20;;;;;;;20.95;36.40;101079.34;5120075;28;20043;-36
2022/03/29 02:32:50;;;;;;;0.10;0.10;;;;;;;20.94;36.35;101075.75;5113923;28;20114;-35
2022/03/29 02:35:15;;;;;;;0.20;0.20;;;;;;;20.95;36.31;101074.63;5101321;28;20047;-34
2022/03/29 02:37:41;;;;;;;0.20;0.20;;;;;;;20.96;36.49;101067.16;5116167;28;20067;-37
2022/03/29 02:40:09;;;;;;;0.20;0.20;;;;;;;20.95;36.70;101060.81;5114552;28;20058;-37
2022/03/29 02:42:43;;;;;;;0.10;0.10;;;;;;;20.95;36.55;101059.97;5102652;28;20138;-35
2022/03/29 02:45:13;;;;;;;0.17;0.17;;;;;;;20.94;36.39;101059.16;5117104;28;20066;-36
2022/03/29 02:47:39;;;;;;;0.10;0.10;;;;;;;20.94;36.43;101052.75;5117900;28;20958;-39
2022/03/29 02:50:05;;;;;;;0.17;0.17;;;;;;;20.93;36.55;101060.25;5115843;28;20043;-35
2022/03/29 02:52:30;;;;;;;0.17;0.17;;;;;;;20.93;36.40;101051.94;5122258;28;20057;-38
2022/03/29 02:54:56;;;;;;;0.15;0.15;;;;;;;20.94;36.41;101052.75;5118305;28;20043;-36
2022/03/29 02:57:22;;;;;;;0.20;0.20;;;;;;;20.94;36.49;101048.09;5116353;28;20059;-33
2022/03/29 02:59:48;;;;;;;0.17;0.17;;;;;;;20.94;36.38;101044.47;5120038;28;20046;-34
2022/03/29 03:02:13;;;;;;;0.10;0.10;;;;;;;20.93;36.38;101040.03;5115002;27;20534;-34
2022/03/29 03:04:39;;;;;;;0.10;0.10;;;;;;;20.94;36.43;101037.00;5115804;28;20312;-32
2022/03/29 03:07:05;;;;;;;0.20;0.20;;;;;;;20.94;36.37;101036.16;5120477;28;20077;-34
2022/03/29 03:09:30;;;;;;;0.10;0.10;;;;;;;20.93;36.25;101029.78;5115707;28;20050;-35
2022/03/29 03:11:56;;;;;;;0.10;0.10;;;;;;;20.94;36.43;101034.25;5121831;28;20040;-32
2022/03/29 03:14:22;;;;;;;0.20;0.20;;;;;;;20.94;36.32;101034.25;5116538;28;20047;-33
2022/03/29 03:16:47;;;;;;;0.20;0.20;;;;;;;20.93;36.33;101027.03;5118377;28;20051;-36
2022/03/29 03:19:33;;;;;;;0.20;0.20;;;;;;;20.93;36.68;101023.44;5101722;28;20101;-34
2022/03/29 03:21:59;;;;;;;0.10;0.10;;;;;;;20.93;36.46;101031.75;5113706;28;20458;-36
2022/03/29 03:24:25;;;;;;;0.20;0.20;;;;;;;20.93;36.49;101027.03;5119205;28;20050;-36
2022/03/29 03:26:50;;;;;;;0.10;0.10;;;;;;;20.92;36.42;101016.25;5120468;28;20039;-33
2022/03/29 03:29:16;;;;;;;0.10;0.10;;;;;;;20.93;36.42;101023.44;5120704;28;20044;-33
2022/03/29 03:31:41;;;;;;;0.10;0.10;;;;;;;20.93;36.62;101015.13;5117874;28;20528;-35
2022/03/29 03:34:07;;;;;;;0.20;0.20;;;;;;;20.92;36.36;101019.03;5115063;28;20040;-34
2022/03/29 03:36:33;;;;;;;0.10;0.10;;;;;;;20.92;36.60;101016.25;5117180;28;20362;-32
2022/03/29 03:38:58;;;;;;;0.10;0.10;;;;;;;20.92;36.39;101016.25;5117878;28;20103;-33
2022/03/29 03:41:24;;;;;;;0.10;0.10;;;;;;;20.92;36.63;101017.06;5114735;28;20386;-34
2022/03/29 03:43:50;;;;;;;0.10;0.10;;;;;;;20.92;36.57;101014.31;5120569;28;20153;-34
2022/03/29 03:46:16;;;;;;;0.10;0.10;;;;;;;20.92;36.33;101013.47;5099981;28;20475;-35
2022/03/29 03:48:41;;;;;;;0.10;0.10;;;;;;;20.92;36.39;101006.00;5120348;28;20051;-36
2022/03/29 03:51:07;;;;;;;0.20;0.20;;;;;;;20.92;36.43;101003.22;5115527;28;20062;-34
2022/03/29 03:53:33;;;;;;;0.13;0.13;;;;;;;20.91;36.42;100998.81;5115971;28;20413;-33
2022/03/29 03:55:59;;;;;;;0.17;0.17;;;;;;;20.92;36.60;100996.88;5116921;28;20047;-34
2022/03/29 03:58:24;;;;;;;0.10;0.10;;;;;;;20.92;36.44;100997.69;5114109;28;20043;-33
2022/03/29 04:00:50;;;;;;;0.10;0.10;;;;;;;20.92;36.41;100994.94;5113914;28;20608;-35
2022/03/29 04:03:17;;;;;;;0.10;0.10;;;;;;;20.92;36.56;100985.81;5115396;28;20062;-34
2022/03/29 04:05:43;;;;;;;0.13;0.13;;;;;;;20.93;36.41;100992.97;5116294;28;20051;-37
2022/03/29 04:08:08;;;;;;;0.10;0.10;;;;;;;20.92;36.59;100985.81;5118068;28;20108;-36
2022/03/29 04:10:34;;;;;;;0.13;0.13;;;;;;;20.92;36.53;100983.03;5117589;28;20059;-34
2022/03/29 04:13:01;;;;;;;0.20;0.20;;;;;;;20.91;36.26;100984.16;5119776;27;20043;-37
2022/03/29 04:15:26;;;;;;;0.10;0.10;;;;;;;20.91;36.61;100975.84;5119054;28;20505;-34
2022/03/29 04:17:52;;;;;;;0.10;0.10;;;;;;;20.92;36.52;100980.25;5119810;28;20146;-36
2022/03/29 04:20:18;;;;;;;0.10;0.10;;;;;;;20.90;36.54;100972.25;5120691;28;20053;-33
2022/03/29 04:22:44;;;;;;;0.10;0.10;;;;;;;20.90;36.46;100969.50;5118583;28;20474;-37
2022/03/29 04:25:10;;;;;;;0.10;0.10;;;;;;;20.92;36.60;100963.66;5120869;28;20075;-35
2022/03/29 04:27:36;;;;;;;0.10;0.10;;;;;;;20.91;36.40;100959.25;5119208;28;20140;-34
2022/03/29 04:30:03;;;;;;;0.10;0.10;;;;;;;20.89;36.46;100947.63;5097798;28;20470;-33
2022/03/29 04:32:29;;;;;;;0.10;0.10;;;;;;;20.90;36.37;100944.59;5103808;28;20071;-33
2022/03/29 04:34:54;;;;;;;0.20;0.20;;;;;;;20.91;36.45;100940.69;5120554;28;20313;-33
2022/03/29 04:37:20;;;;;;;0.10;0.10;;;;;;;20.90;36.42;100949.28;5118819;28;20394;-34
2022/03/29 04:39:46;;;;;;;0.10;0.10;;;;;;;20.90;36.49;100939.03;5116034;28;20067;-35
2022/03/29 04:42:12;;;;;;;0.10;0.10;;;;;;;20.90;36.61;100939.03;5100120;28;20114;-34
2022/03/29 04:44:38;;;;;;;0.20;0.20;;;;;;;20.90;36.51;100941.00;5097734;28;20138;-32
2022/03/29 04:47:05;;;;;;;0.10;0.10;;;;;;;20.90;36.45;100944.59;5120335;28;20075;-38
2022/03/29 04:49:30;;;;;;;0.20;0.20;;;;;;;20.92;36.42;100944.28;5117048;28;20075;-38
2022/03/29 04:51:56;;;;;;;0.10;0.10;;;;;;;20.90;36.69;100946.53;5125525;28;20047;-37
2022/03/29 04:54:22;;;;;;;0.10;0.10;;;;;;;20.90;36.43;100941.00;5120312;28;20409;-34
2022/03/29 04:56:47;;;;;;;0.10;0.10;;;;;;;20.89;36.44;100934.59;5120440;28;20071;-34
2022/03/29 04:59:14;;;;;;;0.20;0.20;;;;;;;20.90;36.77;100936.28;5116305;28;20324;-34
2022/03/29 05:01:40;;;;;;;0.10;0.10;;;;;;;20.89;36.57;100933.78;5118252;28;20059;-36
2022/03/29 05:04:08;;;;;;;0.20;0.20;;;;;;;20.90;36.52;100933.50;5125476;28;20385;-35
2022/03/29 05:06:34;;;;;;;0.10;0.10;;;;;;;20.90;36.62;100927.97;5122426;28;20118;-34
2022/03/29 05:09:00;;;;;;;0.20;0.20;;;;;;;20.90;36.37;100927.16;5117864;28;20042;-36
2022/03/29 05:11:25;;;;;;;0.10;0.10;;;;;;;20.89;36.37;100923.53;5121240;27;20039;-34
2022/03/29 05:13:51;;;;;;;0.15;0.15;;;;;;;20.90;36.29;100925.19;5123307;28;20054;-34
2022/03/29 05:16:16;;;;;;;0.20;0.20;;;;;;;20.90;36.58;100930.75;5127421;27;20045;-34
2022/03/29 05:18:43;;;;;;;0.10;0.10;;;;;;;20.89;36.41;100920.75;5120114;28;20052;-34
2022/03/29 05:21:10;;;;;;;0.20;0.20;;;;;;;20.89;36.48;100920.75;5117819;28;20473;-35
2022/03/29 05:23:35;;;;;;;0.10;0.10;;;;;;;20.89;36.65;100918.00;5117754;28;20083;-36
2022/03/29 05:26:01;;;;;;;0.20;0.20;;;;;;;20.90;36.46;100927.16;5117536;27;20139;-35
2022/03/29 05:28:27;;;;;;;0.10;0.10;;;;;;;20.89;36.66;100917.16;5124719;28;20163;-33
2022/03/29 05:30:52;;;;;;;0.10;0.10;;;;;;;20.90;36.73;100910.53;5114971;28;20108;-34
2022/03/29 05:33:18;;;;;;;0.10;0.10;;;;;;;20.87;36.80;100911.94;5114922;28;20073;-33
2022/03/29 05:35:44;;;;;;;0.15;0.15;;;;;;;20.89;36.56;100918.00;5114311;28;20397;-33
2022/03/29 05:38:11;;;;;;;0.10;0.10;;;;;;;20.88;36.50;100913.56;5114630;27;20123;-37
2022/03/29 05:40:37;;;;;;;0.10;0.10;;;;;;;20.87;36.68;100914.72;5100134;28;20087;-36
2022/03/29 05:43:02;;;;;;;0.10;0.10;;;;;;;20.87;36.31;100914.72;5113945;28;20051;-34
2022/03/29 05:45:30;;;;;;;0.10;0.10;;;;;;;20.87;36.54;100917.47;5115360;28;20191;-34
2022/03/29 05:50:42;;;;;;;0.10;0.10;;;;;;;20.88;36.54;100916.34;5102880;28;20094;-35
2022/03/29 05:53:08;;;;;;;0.10;0.10;;;;;;;20.87;36.28;100923.00;5115535;28;20134;-35
2022/03/29 05:55:34;;;;;;;0.10;0.10;;;;;;;20.89;36.42;100914.41;5112928;28;20040;-36
2022/03/29 05:58:00;;;;;;;0.20;0.20;;;;;;;20.87;36.56;100919.41;5112574;28;20384;-37
2022/03/29 06:00:27;;;;;;;0.10;0.10;;;;;;;20.88;36.22;100921.88;5114697;28;20099;-33
2022/03/29 06:02:54;;;;;;;0.20;0.20;;;;;;;20.86;36.45;100915.84;5112456;28;20086;-33
2022/03/29 06:05:20;;;;;;;0.10;0.10;;;;;;;20.89;36.42;100917.16;5113678;28;20059;-35
2022/03/29 06:07:45;;;;;;;0.10;0.10;;;;;;;20.89;36.33;100917.16;5098502;28;20122;-36
2022/03/29 06:10:11;;;;;;;0.17;0.17;;;;;;;20.88;36.43;100918.28;5117544;28;20405;-35
2022/03/29 06:12:37;;;;;;;0.20;0.20;;;;;;;20.88;36.41;100916.34;5098182;28;20589;-35
2022/03/29 06:15:04;;;;;;;0.10;0.10;;;;;;;20.86;36.44;100921.38;5096870;28;20479;-35
2022/03/29 06:17:30;;;;;;;0.20;0.20;;;;;;;20.86;36.33;100921.38;5095302;28;20589;-33
2022/03/29 06:19:56;;;;;;;0.20;0.20;;;;;;;20.87;36.53;100933.25;5099980;28;20134;-32
2022/03/29 06:22:22;;;;;;;0.10;0.10;;;;;;;20.77;36.42;100928.66;5116204;28;20047;-33
2022/03/29 06:24:48;;;;;;;0.17;0.17;;;;;;;20.85;36.35;100930.75;5093167;28;20039;-35
2022/03/29 06:27:14;;;;;;;0.20;0.20;;;;;;;20.86;36.43;100939.91;5092506;28;20136;-36
2022/03/29 06:29:40;;;;;;;0.20;0.20;;;;;;;20.86;36.17;100935.22;5111075;28;20048;-34
2022/03/29 06:32:06;;;;;;;0.20;0.20;;;;;;;20.88;36.45;100941.25;5116450;28;20039;-34
2022/03/29 06:34:32;;;;;;;0.20;0.20;;;;;;;20.89;36.32;100942.91;5111979;28;20039;-34
2022/03/29 06:36:59;;;;;;;0.10;0.10;;;;;;;20.90;36.41;100943.75;5113378;27;20135;-33
2022/03/29 06:39:26;;;;;;;0.15;0.15;;;;;;;20.88;36.06;100938.50;5090413;28;20073;-37
2022/03/29 06:41:51;;;;;;;0.10;0.10;;;;;;;20.82;36.17;100947.16;5106390;28;20135;-35
2022/03/29 06:44:22;;;;;;;0.20;0.20;;;;;;;20.92;35.97;100950.63;5113825;27;20078;-37
2022/03/29 06:46:49;;;;;;;0.15;0.15;;;;;;;20.92;36.01;100953.41;5095046;28;20188;-34
2022/03/29 06:49:15;;;;;;;0.20;0.20;;;;;;;20.93;36.23;100955.03;5110258;28;20070;-34
2022/03/29 06:51:43;;;;;;;0.20;0.20;;;;;;;20.94;36.16;100953.09;5113532;27;20046;-36
2022/03/29 06:54:08;;;;;;;0.20;0.20;;;;;;;20.95;36.29;100949.25;5110885;28;20138;-37
2022/03/29 06:56:34;;;;;;;0.20;0.20;;;;;;;20.97;36.33;100952.53;5106039;28;20051;-37
2022/03/29 06:59:00;;;;;;;0.20;0.20;;;;;;;20.97;36.19;100947.00;5108449;28;20080;-37
2022/03/29 07:01:26;;;;;;;0.22;0.22;;;;;;;20.97;35.91;100949.75;5102928;28;20305;-36
2022/03/29 07:03:52;;;;;;;0.20;0.20;;;;;;;20.98;36.11;100943.94;5101845;27;20077;-32
2022/03/29 07:06:17;;;;;;;0.20;0.20;;;;;;;20.99;36.21;100947.53;5111639;28;20051;-35
2022/03/29 07:11:48;;;;;;;0.20;0.20;;;;;;;21.01;36.19;100951.66;5093684;28;20501;-34
2022/03/29 07:14:14;;;;;;;0.20;0.20;;;;;;;21.02;36.08;100939.44;5111680;28;20042;-36
2022/03/29 07:16:42;;;;;;;0.20;0.20;;;;;;;21.03;36.15;100946.66;5114526;28;20042;-33
2022/03/29 07:19:09;;;;;;;0.20;0.20;;;;;;;21.04;36.05;100939.16;5113099;28;20047;-34
2022/03/29 07:21:38;;;;;;;0.20;0.20;;;;;;;21.06;36.04;100945.22;5112730;28;20474;-36
2022/03/29 07:24:04;;;;;;;0.20;0.20;;;;;;;21.06;36.14;100942.47;5108546;28;20126;-37
2022/03/29 07:26:30;;;;;;;0.10;0.10;;;;;;;21.07;35.92;100941.38;5096965;28;20143;-35
2022/03/29 07:28:56;;;;;;;0.10;0.10;;;;;;;21.08;36.12;100936.66;5116283;28;20035;-37
2022/03/29 07:31:22;;;;;;;0.17;0.17;;;;;;;21.09;36.08;100935.53;5105169;28;20754;-39
2022/03/29 07:33:48;;;;;;;0.20;0.20;;;;;;;21.10;35.84;100929.69;5084627;28;20138;-34
2022/03/29 07:36:14;;;;;;;0.15;0.15;;;;;;;21.11;35.96;100936.03;5104083;28;20040;-37
2022/03/29 07:38:40;;;;;;;0.15;0.15;;;;;;;21.12;36.04;100933.00;5091241;28;20047;-36
2022/03/29 07:41:05;;;;;;;0.15;0.15;;;;;;;21.12;35.88;100929.41;5110204;28;20047;-35
2022/03/29 07:43:31;;;;;;;0.10;0.10;;;;;;;21.00;36.59;100929.81;5111547;27;20423;-38
2022/03/29 07:45:57;;;;;;;0.10;0.10;;;;;;;21.09;36.08;100928.03;5119654;27;20043;-35
2022/03/29 07:48:23;;;;;;;0.20;0.20;;;;;;;21.14;36.28;100929.91;5114435;28;20043;-34
2022/03/29 07:51:11;;;;;;;0.10;0.10;;;;;;;21.15;36.00;100932.38;5097159;28;20052;-34
2022/03/29 07:53:38;;;;;;;0.10;0.10;;;;;;;21.17;36.05;100927.41;5115836;28;20051;-33
2022/03/29 07:56:04;;;;;;;0.10;0.10;;;;;;;21.17;36.17;100930.16;5105908;28;20408;-37
2022/03/29 07:58:30;;;;;;;0.10;0.10;;;;;;;21.20;36.01;100924.03;5108112;28;20135;-35
2022/03/29 08:00:55;;;;;;;0.10;0.10;;;;;;;21.21;36.09;100919.31;5097073;28;20070;-35
2022/03/29 08:03:21;;;;;;;0.10;0.10;;;;;;;21.22;35.93;100930.09;5114353;27;20066;-35
2022/03/29 08:05:49;;;;;;;0.20;0.20;;;;;;;21.23;35.95;100928.97;5116064;28;20666;-36
2022/03/29 08:08:15;;;;;;;0.10;0.10;;;;;;;20.93;36.09;100927.38;5097230;28;20078;-38
2022/03/29 08:10:42;;;;;;;0.20;0.20;;;;;;;21.13;35.93;100920.78;5076609;28;20396;-35
2022/03/29 08:13:10;;;;;;;0.10;0.10;;;;;;;21.22;36.01;100912.66;5094758;28;20179;-34
2022/03/29 08:15:37;;;;;;;0.20;0.20;;;;;;;21.25;35.79;100906.53;5096583;28;20138;-38
2022/03/29 08:18:06;;;;;;;0.20;0.20;;;;;;;21.28;35.93;100912.28;5111842;28;20052;-35
2022/03/29 08:20:31;;;;;;;0.20;0.20;;;;;;;21.30;36.04;100915.59;5112327;27;20385;-33
2022/03/29 08:23:00;;;;;;;0.20;0.20;;;;;;;21.30;35.68;100898.16;5115581;28;21325;-36
2022/03/29 08:25:27;;;;;;;0.20;0.20;;;;;;;21.33;35.90;100896.75;5098394;28;20083;-34
2022/03/29 08:27:56;;;;;;;0.20;0.20;;;;;;;21.34;35.68;100899.25;5089806;28;20165;-37
2022/03/29 08:30:23;;;;;;;0.10;0.10;;;;;;;21.35;35.86;100903.66;5093229;28;20139;-34
2022/03/29 08:32:49;;;;;;;0.10;0.10;;;;;;;21.12;36.38;100902.53;5108690;28;20085;-33
2022/03/29 08:35:15;;;;;;;0.20;0.20;;;;;;;21.19;36.40;100897.44;5104695;28;20485;-36
2022/03/29 08:37:41;;;;;;;0.15;0.15;;;;;;;21.32;36.05;100897.88;5104694;28;20039;-38
2022/03/29 08:40:13;;;;;;;0.20;0.20;;;;;;;21.34;36.07;100896.47;5107821;28;20120;-36
2022/03/29 08:42:42;;;;;;;0.20;0.20;;;;;;;21.21;35.99;100898.00;5092556;27;20133;-39
2022/03/29 08:45:10;;;;;;;0.20;0.20;;;;;;;21.25;36.10;100896.28;5101590;28;20561;-36
2022/03/29 08:47:36;;;;;;;0.10;0.10;;;;;;;21.36;36.16;100896.19;5094062;27;20142;-34
2022/03/29 08:50:04;;;;;;;0.38;0.38;;;;;;;21.38;36.07;100900.31;5092400;28;20047;-37
2022/03/29 08:52:30;;;;;;;;;;;;;;;21.41;35.79;100902.47;5116778;28;20167;-35
2022/03/29 08:54:56;;;;;;;0.20;0.20;;;;;;;21.43;35.98;100907.72;5115742;27;19927;-36
2022/03/29 08:57:22;;;;;;;0.20;0.20;;;;;;;21.43;36.05;100889.16;5117639;28;20138;-34
2022/03/29 08:59:47;;;;;;;0.20;0.20;;;;;;;21.44;35.85;100887.22;5115681;27;20043;-36
2022/03/29 09:02:16;;;;;;;0.10;0.10;;;;;;;21.45;35.63;100891.63;5116057;28;20047;-37
2022/03/29 09:04:43;;;;;;;0.10;0.10;;;;;;;21.47;35.93;100889.41;5116729;28;20482;-34
2022/03/29 09:07:09;;;;;;;0.20;0.20;;;;;;;21.48;35.72;100882.72;5100823;28;20071;-36
2022/03/29 09:09:41;;;;;;;0.20;0.20;;;;;;;21.48;35.87;100878.00;5095700;28;20134;-34
2022/03/29 09:15:02;;;;;;;0.10;0.10;;;;;;;21.50;35.76;100864.69;5153789;27;20112;-26
2022/03/29 09:17:31;;;;;;;0.10;0.10;;;;;;;21.52;35.58;100872.69;5117133;27;20171;-28
2022/03/29 09:19:59;;;;;;;0.10;0.10;;;;;;;21.51;35.71;100863.56;5118161;27;20128;-29
2022/03/29 09:22:44;;;;;;;;;;;;;;;21.56;35.61;100870.16;5114393;27;20133;-29
2022/03/29 09:25:31;;;;;;;0.10;0.10;;;;;;;21.50;35.75;100869.38;5119008;27;20464;-29
2022/03/29 09:28:03;;;;;;;0.20;0.20;;;;;;;21.36;36.17;100865.69;5119865;27;20141;-29
2022/03/29 09:30:39;;;;;;;0.20;0.20;;;;;;;21.52;35.84;100867.16;5115120;27;20133;-29
2022/03/29 09:33:07;;;;;;;0.10;0.10;;;;;;;21.57;35.80;100872.63;5113154;27;20557;-29
2022/03/29 09:35:35;;;;;;;0.10;0.10;;;;;;;21.60;35.83;100873.97;5112182;27;20162;-30
2022/03/29 09:38:01;;;;;;;;;;;;;;;21.61;35.83;100870.91;5107747;27;21479;-29
2022/03/29 09:40:34;;;;;;;0.10;0.10;;;;;;;21.41;35.84;100860.09;5124749;27;19939;-31
2022/03/29 09:43:03;;;;;;;0.10;0.10;;;;;;;21.39;36.31;100857.63;5100235;27;20057;-31
2022/03/29 09:45:50;;;;;;;0.10;0.10;;;;;;;21.57;36.12;100856.00;5130312;27;20546;-29
2022/03/29 09:48:37;;;;;;;0.10;0.10;;;;;;;21.63;36.03;100856.75;5105656;27;20548;-30
2022/03/29 09:53:51;;;;;;;0.10;0.10;;;;;;;21.67;35.76;100857.78;5153491;27;20976;-34
2022/03/29 09:56:20;;;;;;;0.10;0.10;;;;;;;21.68;35.81;100854.75;5114533;27;20126;-35
2022/03/29 09:59:09;;;;;;;0.10;0.10;;;;;;;21.70;35.89;100846.94;5082202;27;20461;-34
2022/03/29 10:01:57;;;;;;;0.20;0.20;;;;;;;21.71;35.68;100840.25;5110960;27;20130;-36
2022/03/29 10:04:25;;;;;;;0.10;0.10;;;;;;;21.71;35.72;100843.03;5101722;27;20148;-34
2022/03/29 10:06:52;;;;;;;0.15;0.15;;;;;;;21.74;35.87;100839.66;5133945;27;20130;-36
2022/03/29 10:09:26;;;;;;;0.17;0.17;;;;;;;21.74;35.79;100828.59;5127559;27;20141;-34
2022/03/29 10:11:53;;;;;;;0.10;0.10;;;;;;;21.76;35.66;100829.13;5120303;27;20141;-37
2022/03/29 10:14:21;;;;;;;0.10;0.10;;;;;;;21.75;35.66;100830.22;5125004;27;20508;-37
2022/03/29 10:16:48;;;;;;;0.10;0.10;;;;;;;21.76;35.65;100831.88;5118565;27;20141;-35
2022/03/29 10:19:17;;;;;;;0.10;0.10;;;;;;;21.76;35.75;100818.03;5095645;27;20077;-35
2022/03/29 10:21:44;;;;;;;0.10;0.10;;;;;;;21.76;35.53;100826.34;5127234;27;20493;-34
2022/03/29 10:24:13;;;;;;;0.10;0.10;;;;;;;21.78;35.60;100821.31;5087679;27;20154;-33
2022/03/29 10:26:42;;;;;;;0.10;0.10;;;;;;;21.78;35.65;100815.78;5112776;27;20074;-34
2022/03/29 10:29:08;;;;;;;0.10;0.10;;;;;;;21.78;35.68;100820.50;5134993;27;20142;-35
2022/03/29 10:31:36;;;;;;;0.10;0.10;;;;;;;21.79;35.49;100819.38;5118616;27;20141;-36
2022/03/29 10:34:24;;;;;;;0.10;0.10;;;;;;;21.80;35.52;100804.38;5113830;27;20086;-36
2022/03/29 10:37:10;;;;;;;;;;;;;;;21.79;35.47;100809.09;5111163;27;20255;-35
2022/03/29 10:39:54;;;;;;;0.20;0.20;;;;;;;21.79;35.75;100814.63;5114434;27;19972;-38
2022/03/29 10:42:41;;;;;;;0.20;0.20;;;;;;;21.81;35.55;100816.31;5113258;27;20130;-37
2022/03/29 10:45:23;;;;;;;0.10;0.10;;;;;;;21.81;35.63;100810.75;5096499;27;20074;-34
2022/03/29 10:48:12;;;;;;;0.10;0.10;;;;;;;21.82;35.59;100812.41;5132131;27;20608;-35
2022/03/29 10:50:56;;;;;;;0.10;0.10;;;;;;;21.82;35.60;100799.34;5124128;27;20781;-34
2022/03/29 10:56:19;;;;;;;0.10;0.10;;;;;;;21.80;35.52;100790.50;5147095;27;20148;-33
2022/03/29 11:01:42;;;;;;;0.10;0.10;;;;;;;21.78;35.54;100793.59;5148321;27;20238;-34
2022/03/29 11:04:23;;;;;;;0.10;0.10;;;;;;;21.79;35.48;100791.63;5103468;27;20552;-30
2022/03/29 11:07:10;;;;;;;0.10;0.10;;;;;;;21.65;35.54;100794.34;5109252;27;20043;-36
2022/03/29 11:09:37;;;;;;;0.10;0.10;;;;;;;21.71;35.64;100776.50;5102112;27;20133;-37
2022/03/29 11:12:03;;;;;;;0.20;0.20;;;;;;;21.78;35.51;100778.91;5104712;27;20062;-37
2022/03/29 11:19:48;;;;;;;0.10;0.10;;;;;;;21.78;35.52;100768.66;5143137;27;20139;-37
2022/03/29 11:22:25;;;;;;;0.10;0.10;;;;;;;21.78;35.48;100770.59;5133700;27;20641;-35
2022/03/29 11:24:54;;;;;;;0.10;0.10;;;;;;;21.79;35.53;100767.50;5149102;27;20035;-34
2022/03/29 11:27:22;;;;;;;0.10;0.10;;;;;;;21.78;35.34;100765.88;5130732;27;20508;-36
2022/03/29 11:29:49;;;;;;;0.10;0.10;;;;;;;21.73;35.14;100765.13;5139461;27;20161;-35
2022/03/29 11:32:15;;;;;;;0.20;0.20;;;;;;;21.77;35.54;100771.72;5149343;27;20415;-33
2022/03/29 11:34:40;;;;;;;0.10;0.10;;;;;;;21.83;35.50;100769.69;5142964;27;20047;-35
2022/03/29 11:37:07;;;;;;;0.10;0.10;;;;;;;21.82;35.47;100766.09;5136548;27;20061;-32
2022/03/29 11:39:32;;;;;;;0.10;0.10;;;;;;;21.84;35.34;100766.59;5113273;27;20065;-37
2022/03/29 11:41:58;;;;;;;0.10;0.10;;;;;;;21.44;35.37;100763.34;5135454;27;20046;-33
2022/03/29 11:44:25;;;;;;;0.20;0.20;;;;;;;21.67;35.13;100760.78;5134489;27;20492;-34
2022/03/29 11:46:56;;;;;;;0.13;0.13;;;;;;;21.77;35.08;100749.56;5130179;27;20135;-37
2022/03/29 11:49:26;;;;;;;0.10;0.10;;;;;;;21.79;35.19;100753.66;5135446;27;20185;-36
2022/03/29 11:52:11;;;;;;;0.10;0.10;;;;;;;21.82;35.25;100746.69;5136639;27;20212;-35
2022/03/29 11:54:39;;;;;;;0.10;0.10;;;;;;;21.83;35.17;100745.56;5137101;27;20259;-33